Time;durP1;ratioP1;P1;durP2;ratioP2;P2;SDS_P1;SDS_P2;PMS_P1;PMS_P2;Temp;Humidity;BMP_temperature;BMP_pressure;BME280_temperature;BME280_humidity;BME280_pressure;Samples;Min_cycle;Max_cycle;Signal;HPM_P1;HPM_P2
2021/06/17 00:00:29;;;;;;;0.68;0.15;;;;;;;13.96;100.00;99285.44;5071727;28;20114;-55
2021/06/17 00:03:32;;;;;;;0.40;0.10;;;;;;;13.93;100.00;99280.84;5071699;28;20055;-55
2021/06/17 00:06:36;;;;;;;0.70;0.43;;;;;;;13.92;100.00;99279.34;5071570;28;20047;-54
2021/06/17 00:09:39;;;;;;;1.35;0.20;;;;;;;13.90;100.00;99276.31;5073299;28;20043;-54
2021/06/17 00:12:42;;;;;;;0.38;0.25;;;;;;;13.87;100.00;99266.13;5075587;28;20504;-54
2021/06/17 00:15:48;;;;;;;0.98;0.20;;;;;;;13.86;100.00;99270.22;5075271;28;20040;-54
2021/06/17 00:18:52;;;;;;;1.75;0.32;;;;;;;13.80;100.00;99267.41;5075706;28;20390;-53
2021/06/17 00:21:56;;;;;;;0.98;0.40;;;;;;;13.79;100.00;99279.88;5075191;28;20071;-54
2021/06/17 00:24:59;;;;;;;0.43;0.20;;;;;;;13.80;100.00;99286.22;5075074;28;20055;-54
2021/06/17 00:28:03;;;;;;;4.40;0.75;;;;;;;13.80;100.00;99275.78;5075111;28;20056;-55
2021/06/17 00:31:07;;;;;;;0.45;0.40;;;;;;;13.80;100.00;99273.00;5075380;28;20047;-55
2021/06/17 00:34:11;;;;;;;0.38;0.30;;;;;;;13.78;100.00;99266.38;5075036;28;20059;-55
2021/06/17 00:37:15;;;;;;;0.30;0.20;;;;;;;13.75;100.00;99254.19;5075238;28;20059;-54
2021/06/17 00:40:19;;;;;;;3.72;0.32;;;;;;;13.72;100.00;99248.84;5074856;28;20067;-54
2021/06/17 00:43:22;;;;;;;1.70;0.55;;;;;;;13.69;100.00;99257.00;5075143;28;20059;-55
2021/06/17 00:46:26;;;;;;;0.82;0.20;;;;;;;13.66;100.00;99258.00;5075025;28;20051;-46
2021/06/17 00:49:30;;;;;;;0.10;0.10;;;;;;;13.62;100.00;99251.91;5074660;28;20043;-46
2021/06/17 00:52:34;;;;;;;4.30;0.20;;;;;;;13.58;100.00;99245.81;5074532;28;20043;-46
2021/06/17 00:55:40;;;;;;;0.28;0.15;;;;;;;13.53;100.00;99237.44;5074106;28;20060;-46
2021/06/17 00:58:45;;;;;;;0.40;0.20;;;;;;;13.48;100.00;99236.19;5074441;28;20051;-46
2021/06/17 01:01:48;;;;;;;0.57;0.28;;;;;;;13.47;100.00;99245.81;5074561;28;20413;-46
2021/06/17 01:04:52;;;;;;;6.38;0.55;;;;;;;13.45;100.00;99236.41;5073401;28;20048;-46
2021/06/17 01:08:14;;;;;;;0.10;0.10;;;;;;;13.42;100.00;99232.63;5074620;28;20051;-46
2021/06/17 01:11:30;;;;;;;0.70;0.20;;;;;;;13.41;100.00;99225.50;5074170;28;20040;-46
2021/06/17 01:14:44;;;;;;;0.30;0.30;;;;;;;13.41;100.00;99231.09;5074407;28;20044;-46
2021/06/17 01:18:02;;;;;;;0.10;0.10;;;;;;;13.41;100.00;99231.09;5074489;28;20047;-46
2021/06/17 01:21:14;;;;;;;1.75;0.13;;;;;;;13.41;100.00;99225.50;5072988;28;20044;-46
2021/06/17 01:24:30;;;;;;;0.25;0.10;;;;;;;13.44;100.00;99224.50;5073954;28;20051;-46
2021/06/17 01:27:39;;;;;;;4.00;0.30;;;;;;;13.45;100.00;99211.25;5073876;28;20055;-46
2021/06/17 01:31:10;;;;;;;0.50;0.17;;;;;;;13.43;100.00;99211.75;5073820;28;20047;-46
2021/06/17 01:34:15;;;;;;;0.65;0.20;;;;;;;13.43;100.00;99211.00;5073873;28;20047;-46
2021/06/17 01:37:22;;;;;;;1.25;0.30;;;;;;;13.42;100.00;99221.44;5073749;28;20051;-46
2021/06/17 01:40:28;;;;;;;1.67;0.22;;;;;;;13.43;100.00;99217.34;5073078;28;20051;-45
2021/06/17 01:43:34;;;;;;;0.50;0.25;;;;;;;13.42;100.00;99218.63;5073550;28;20048;-46
2021/06/17 01:46:38;;;;;;;0.10;0.10;;;;;;;13.42;100.00;99204.66;5073538;28;20044;-46
2021/06/17 01:49:43;;;;;;;0.47;0.25;;;;;;;13.45;100.00;99203.63;5073457;28;20051;-46
2021/06/17 01:52:50;;;;;;;2.17;0.77;;;;;;;13.45;100.00;99198.03;5073491;28;20051;-46
2021/06/17 01:55:59;;;;;;;1.60;0.25;;;;;;;13.43;100.00;99194.22;5073074;28;20059;-46
2021/06/17 01:59:04;;;;;;;1.27;0.45;;;;;;;13.46;100.00;99198.78;5073660;28;20106;-46
2021/06/17 02:02:09;;;;;;;1.75;0.32;;;;;;;13.46;100.00;99202.34;5073455;28;20047;-46
2021/06/17 02:05:14;;;;;;;3.65;0.30;;;;;;;13.43;100.00;99200.56;5073179;28;20072;-46
2021/06/17 02:08:20;;;;;;;4.18;0.77;;;;;;;13.41;100.00;99214.31;5073405;28;20115;-46
2021/06/17 02:11:25;;;;;;;3.38;0.17;;;;;;;13.38;100.00;99214.56;5073132;28;20048;-46
2021/06/17 02:14:30;;;;;;;0.20;0.10;;;;;;;13.38;100.00;99218.13;5072977;28;20496;-46
2021/06/17 02:17:35;;;;;;;1.77;0.47;;;;;;;13.39;100.00;99211.25;5072159;28;20051;-46
2021/06/17 02:20:39;;;;;;;0.17;0.17;;;;;;;13.41;100.00;99213.53;5072194;28;20049;-46
2021/06/17 02:23:48;;;;;;;1.75;0.55;;;;;;;13.37;100.00;99213.81;5072856;28;20397;-46
2021/06/17 02:26:56;;;;;;;0.40;0.15;;;;;;;13.37;100.00;99208.22;5072789;28;20039;-46
2021/06/17 02:30:06;;;;;;;0.40;0.30;;;;;;;13.35;100.00;99207.19;5072745;28;20139;-46
2021/06/17 02:33:12;;;;;;;0.45;0.10;;;;;;;13.32;100.00;99214.56;5072792;28;20044;-47
2021/06/17 02:36:22;;;;;;;0.65;0.28;;;;;;;13.28;100.00;99202.88;5072611;28;20043;-46
2021/06/17 02:39:28;;;;;;;0.28;0.13;;;;;;;13.27;100.00;99211.78;5072967;28;20068;-47
2021/06/17 02:42:34;;;;;;;3.75;0.60;;;;;;;13.17;100.00;99211.28;5072428;28;20504;-46
2021/06/17 02:45:39;;;;;;;0.65;0.20;;;;;;;13.09;100.00;99193.50;5072269;28;20067;-46
2021/06/17 02:48:43;;;;;;;0.30;0.17;;;;;;;13.07;100.00;99196.03;5072639;28;20107;-47
2021/06/17 02:51:46;;;;;;;0.20;0.10;;;;;;;13.03;100.00;99211.50;5072630;28;20449;-47
2021/06/17 02:54:50;;;;;;;0.32;0.10;;;;;;;12.88;100.00;99220.13;5072146;28;20401;-47
2021/06/17 02:58:30;;;;;;;3.88;0.10;;;;;;;12.81;100.00;99240.19;5072531;28;20048;-47
2021/06/17 03:02:02;;;;;;;0.75;0.50;;;;;;;12.73;100.00;99250.34;5072249;28;20405;-47
2021/06/17 03:05:18;;;;;;;1.08;0.55;;;;;;;12.67;100.00;99249.53;5072428;28;20044;-47
2021/06/17 03:08:30;;;;;;;0.30;0.30;;;;;;;12.61;100.00;99238.38;5072177;28;20051;-47
2021/06/17 03:11:35;;;;;;;1.02;0.38;;;;;;;12.59;100.00;99240.91;5072097;28;20047;-47
2021/06/17 03:14:40;;;;;;;0.28;0.28;;;;;;;12.56;100.00;99250.28;5072088;28;20048;-47
2021/06/17 03:17:47;;;;;;;0.32;0.32;;;;;;;12.52;100.00;99257.38;5072062;28;20503;-47
2021/06/17 03:20:52;;;;;;;10.85;0.57;;;;;;;12.46;100.00;99259.41;5072030;28;20052;-47
2021/06/17 03:23:57;;;;;;;0.73;0.20;;;;;;;12.38;100.00;99253.53;5072276;28;20055;-47
2021/06/17 03:27:02;;;;;;;2.20;0.47;;;;;;;12.33;100.00;99245.13;5072098;28;20043;-48
2021/06/17 03:30:07;;;;;;;0.57;0.25;;;;;;;12.26;100.00;99251.22;5071981;28;20043;-48
2021/06/17 03:33:11;;;;;;;1.35;0.63;;;;;;;12.21;100.00;99249.16;5072053;28;20043;-48
2021/06/17 03:36:15;;;;;;;0.40;0.00;;;;;;;12.15;100.00;99263.84;5071881;28;20055;-49
2021/06/17 03:39:21;;;;;;;0.35;0.20;;;;;;;12.14;100.00;99276.28;5071842;28;20515;-49
2021/06/17 03:42:26;;;;;;;0.32;0.13;;;;;;;12.08;100.00;99261.53;5071824;28;20055;-49
2021/06/17 03:45:31;;;;;;;4.15;0.40;;;;;;;12.04;100.00;99257.47;5075212;28;20043;-49
2021/06/17 03:48:38;;;;;;;2.70;0.10;;;;;;;11.97;100.00;99247.53;5075816;28;20052;-49
2021/06/17 03:51:42;;;;;;;0.55;0.25;;;;;;;11.96;100.00;99251.56;5075889;28;20051;-49
2021/06/17 03:54:47;;;;;;;6.05;0.93;;;;;;;11.93;100.00;99254.63;5075616;28;20496;-50
2021/06/17 03:57:52;;;;;;;1.00;0.38;;;;;;;11.92;100.00;99261.44;5075903;28;20052;-49
2021/06/17 04:00:57;;;;;;;8.48;0.47;;;;;;;11.91;100.00;99259.94;5076037;28;20056;-49
2021/06/17 04:04:00;;;;;;;0.10;0.10;;;;;;;11.90;100.00;99259.16;5075911;28;20063;-49
2021/06/17 04:07:09;;;;;;;1.27;0.20;;;;;;;11.91;100.00;99257.16;5075668;28;20051;-50
2021/06/17 04:10:15;;;;;;;1.02;0.35;;;;;;;11.92;100.00;99272.59;5075587;28;20063;-50
2021/06/17 04:13:19;;;;;;;2.17;0.63;;;;;;;11.89;100.00;99273.63;5075466;28;20500;-50
2021/06/17 04:16:26;;;;;;;5.65;0.70;;;;;;;11.89;100.00;99276.41;5075252;28;20040;-50
2021/06/17 04:19:31;;;;;;;0.25;0.25;;;;;;;11.87;100.00;99276.13;5075195;28;20043;-50
2021/06/17 04:22:38;;;;;;;0.28;0.28;;;;;;;11.90;100.00;99275.13;5075267;28;20047;-50
2021/06/17 04:25:43;;;;;;;0.30;0.20;;;;;;;11.90;100.00;99272.34;5075027;28;20409;-50
2021/06/17 04:28:48;;;;;;;0.10;0.10;;;;;;;11.94;100.00;99282.00;5074767;28;20051;-50
2021/06/17 04:31:53;;;;;;;1.52;0.45;;;;;;;11.96;100.00;99268.31;5075288;28;20051;-50
2021/06/17 04:34:58;;;;;;;0.15;0.15;;;;;;;12.00;100.00;99274.44;5075072;28;20111;-50
2021/06/17 04:38:03;;;;;;;0.82;0.10;;;;;;;12.08;100.00;99272.69;5075104;28;20051;-50
2021/06/17 04:41:08;;;;;;;0.38;0.22;;;;;;;12.10;100.00;99278.56;5075321;28;20048;-50
2021/06/17 04:44:12;;;;;;;1.70;0.30;;;;;;;12.14;100.00;99276.28;5074986;28;20409;-49
2021/06/17 04:47:17;;;;;;;1.08;0.30;;;;;;;12.16;100.00;99279.34;5074817;28;20067;-49
2021/06/17 04:50:22;;;;;;;0.65;0.47;;;;;;;12.17;100.00;99280.13;5074943;28;20547;-49
2021/06/17 04:53:28;;;;;;;1.50;0.20;;;;;;;12.15;100.00;99275.00;5074675;28;20394;-49
2021/06/17 04:56:31;;;;;;;2.75;0.47;;;;;;;12.16;100.00;99276.56;5074120;28;20405;-49
2021/06/17 04:59:35;;;;;;;4.18;0.35;;;;;;;12.20;100.00;99270.72;5074572;28;20048;-49
2021/06/17 05:02:38;;;;;;;1.63;0.45;;;;;;;12.22;100.00;99256.25;5074564;28;20055;-49
2021/06/17 05:05:41;;;;;;;0.35;0.22;;;;;;;12.30;100.00;99255.28;5074308;28;20056;-49
2021/06/17 05:12:24;;;;;;;0.20;0.20;;;;;;;12.24;100.00;99237.75;5053261;28;20044;-49
2021/06/17 05:15:27;;;;;;;0.93;0.43;;;;;;;12.25;100.00;99241.31;5074275;28;20401;-49
2021/06/17 05:18:31;;;;;;;0.10;0.00;;;;;;;12.31;100.00;99248.44;5074228;28;20059;-49
2021/06/17 05:21:34;;;;;;;0.73;0.20;;;;;;;12.32;100.00;99243.63;5073205;28;20044;-49
2021/06/17 05:24:38;;;;;;;4.28;0.68;;;;;;;12.37;100.00;99248.44;5073857;28;20044;-49
2021/06/17 05:27:42;;;;;;;8.48;0.43;;;;;;;12.42;100.00;99254.06;5074001;28;20496;-49
2021/06/17 05:30:46;;;;;;;0.63;0.10;;;;;;;12.47;100.00;99255.34;5074267;28;20044;-49
2021/06/17 05:33:50;;;;;;;0.22;0.22;;;;;;;12.50;100.00;99260.69;5074002;28;20059;-49
2021/06/17 05:36:53;;;;;;;4.55;0.25;;;;;;;12.52;100.00;99269.31;5073858;28;20052;-49
2021/06/17 05:39:57;;;;;;;0.68;0.28;;;;;;;12.62;100.00;99283.84;5073876;28;20048;-49
2021/06/17 05:43:00;;;;;;;0.40;0.40;;;;;;;12.73;100.00;99295.03;5073895;28;20055;-49
2021/06/17 05:46:03;;;;;;;0.10;0.10;;;;;;;12.79;100.00;99298.63;5073830;28;20052;-49
2021/06/17 05:49:07;;;;;;;0.22;0.10;;;;;;;12.84;100.00;99293.03;5073974;28;20048;-49
2021/06/17 05:52:11;;;;;;;2.58;0.30;;;;;;;12.90;100.00;99293.81;5074031;28;20496;-49
2021/06/17 05:55:15;;;;;;;0.10;0.10;;;;;;;12.95;100.00;99292.28;5073347;28;20508;-49
2021/06/17 05:58:18;;;;;;;3.00;0.45;;;;;;;13.01;100.00;99295.09;5073398;28;20048;-49
2021/06/17 06:01:22;;;;;;;1.08;0.38;;;;;;;13.04;100.00;99286.47;5073511;28;20048;-49
2021/06/17 06:04:25;;;;;;;0.25;0.10;;;;;;;13.08;100.00;99292.59;5073324;28;20051;-49
2021/06/17 06:07:29;;;;;;;0.70;0.43;;;;;;;13.11;100.00;99286.00;5072614;28;20395;-49
2021/06/17 06:10:32;;;;;;;3.05;0.43;;;;;;;13.19;100.00;99298.19;5073124;28;20594;-49
2021/06/17 06:13:35;;;;;;;1.65;0.30;;;;;;;13.22;100.00;99297.19;5072900;28;20043;-49
2021/06/17 06:16:39;;;;;;;1.58;0.68;;;;;;;13.29;100.00;99305.09;5073030;28;20044;-49
2021/06/17 06:19:42;;;;;;;3.65;0.28;;;;;;;13.43;100.00;99298.47;5072925;28;20054;-49
2021/06/17 06:22:45;;;;;;;1.67;0.30;;;;;;;13.45;100.00;99304.31;5073119;28;20052;-49
2021/06/17 06:25:49;;;;;;;1.65;0.60;;;;;;;13.46;100.00;99300.25;5072832;28;20047;-49
2021/06/17 06:28:53;;;;;;;3.30;0.57;;;;;;;13.51;100.00;99291.09;5072952;28;20127;-49
2021/06/17 06:31:57;;;;;;;0.73;0.35;;;;;;;13.53;100.00;99288.56;5072926;28;20047;-49
2021/06/17 06:35:00;;;;;;;0.20;0.20;;;;;;;13.57;100.00;99289.06;5072917;28;20047;-49
2021/06/17 06:38:06;;;;;;;1.85;0.52;;;;;;;13.61;100.00;99306.34;5072896;28;20512;-49
2021/06/17 06:41:09;;;;;;;0.77;0.28;;;;;;;13.68;100.00;99311.44;5072737;28;20063;-49
2021/06/17 06:44:13;;;;;;;0.73;0.17;;;;;;;13.78;100.00;99313.97;5072969;28;20055;-49
2021/06/17 06:47:16;;;;;;;7.55;0.38;;;;;;;13.84;100.00;99300.75;5072356;28;20059;-49
2021/06/17 06:50:20;;;;;;;1.58;0.28;;;;;;;13.91;100.00;99319.78;5072576;28;20063;-49
2021/06/17 06:53:24;;;;;;;0.70;0.40;;;;;;;14.06;100.00;99323.06;5072428;28;20043;-49
2021/06/17 06:56:28;;;;;;;1.85;0.35;;;;;;;14.22;100.00;99325.09;5071959;28;20404;-49
2021/06/17 06:59:32;;;;;;;0.77;0.20;;;;;;;14.31;100.00;99322.78;5072217;28;20047;-51
2021/06/17 07:02:35;;;;;;;0.68;0.30;;;;;;;14.38;100.00;99333.47;5072570;28;20394;-51
2021/06/17 07:05:39;;;;;;;1.88;0.22;;;;;;;14.50;100.00;99339.81;5072095;28;20055;-49
2021/06/17 07:08:43;;;;;;;4.05;0.90;;;;;;;14.56;100.00;99348.94;5072506;28;20127;-49
2021/06/17 07:11:48;;;;;;;0.22;0.22;;;;;;;14.60;100.00;99332.63;5072440;28;20052;-49
2021/06/17 07:14:51;;;;;;;0.40;0.20;;;;;;;14.75;100.00;99337.94;5072187;28;20067;-49
2021/06/17 07:17:55;;;;;;;0.45;0.40;;;;;;;14.82;100.00;99332.53;5071657;28;20508;-49
2021/06/17 07:21:00;;;;;;;1.85;0.38;;;;;;;14.88;100.00;99336.06;5072429;28;20056;-49
2021/06/17 07:24:04;;;;;;;1.73;0.50;;;;;;;14.89;100.00;99340.41;5072066;28;20392;-49
2021/06/17 07:27:08;;;;;;;0.73;0.28;;;;;;;14.89;100.00;99354.41;5071955;28;20067;-50
2021/06/17 07:30:12;;;;;;;1.50;0.73;;;;;;;14.90;100.00;99339.09;5071995;28;20040;-49
2021/06/17 07:33:16;;;;;;;0.20;0.10;;;;;;;14.98;100.00;99347.75;5072069;28;20063;-49
2021/06/17 07:36:20;;;;;;;1.58;0.20;;;;;;;15.02;100.00;99363.03;5071831;28;20043;-49
2021/06/17 07:39:23;;;;;;;3.70;0.55;;;;;;;15.07;100.00;99355.84;5072119;28;20443;-50
2021/06/17 07:42:26;;;;;;;2.00;0.20;;;;;;;15.13;100.00;99348.94;5071792;28;20043;-51
2021/06/17 07:45:31;;;;;;;0.43;0.20;;;;;;;15.19;100.00;99355.28;5071810;28;20040;-50
2021/06/17 07:48:37;;;;;;;3.13;0.38;;;;;;;15.30;100.00;99362.09;5071930;28;20048;-50
2021/06/17 07:51:41;;;;;;;0.35;0.20;;;;;;;15.38;100.00;99365.84;5071642;28;20355;-50
2021/06/17 07:54:44;;;;;;;8.98;1.25;;;;;;;15.50;100.00;99372.94;5071453;28;20071;-50
2021/06/17 07:57:48;;;;;;;1.58;0.28;;;;;;;15.44;100.00;99375.03;5071731;28;20401;-51
2021/06/17 08:00:51;;;;;;;2.05;0.55;;;;;;;15.41;100.00;99371.19;5072064;28;20506;-51
2021/06/17 08:03:55;;;;;;;7.18;0.55;;;;;;;15.40;100.00;99380.16;5071883;28;20043;-51
2021/06/17 08:06:59;;;;;;;0.30;0.20;;;;;;;15.41;100.00;99373.22;5071541;28;20048;-50
2021/06/17 08:10:03;;;;;;;1.73;0.30;;;;;;;15.38;100.00;99377.84;5071631;28;20044;-51
2021/06/17 08:13:07;;;;;;;0.47;0.13;;;;;;;15.25;100.00;99374.09;5071628;28;20047;-51
2021/06/17 08:16:10;;;;;;;0.22;0.20;;;;;;;15.32;100.00;99384.75;5071770;28;20043;-51
2021/06/17 08:19:14;;;;;;;0.40;0.30;;;;;;;15.35;100.00;99390.13;5071556;28;20507;-50
2021/06/17 08:22:17;;;;;;;2.50;0.30;;;;;;;15.41;100.00;99388.03;5071507;28;20405;-51
2021/06/17 08:25:21;;;;;;;3.22;1.38;;;;;;;15.49;100.00;99377.78;5071466;28;20056;-51
2021/06/17 08:28:26;;;;;;;0.45;0.30;;;;;;;15.63;100.00;99378.72;5071502;28;20393;-51
2021/06/17 08:31:30;;;;;;;0.70;0.25;;;;;;;15.70;100.00;99376.09;5074597;28;20040;-51
2021/06/17 08:34:33;;;;;;;2.28;0.20;;;;;;;15.88;100.00;99375.44;5074865;28;20048;-51
2021/06/17 08:37:37;;;;;;;0.28;0.20;;;;;;;16.23;100.00;99383.06;5075151;28;20051;-51
2021/06/17 08:40:40;;;;;;;0.68;0.10;;;;;;;16.45;100.00;99382.81;5074766;28;20060;-51
2021/06/17 08:43:44;;;;;;;2.03;0.65;;;;;;;16.59;100.00;99392.91;5074850;28;20043;-51
2021/06/17 08:46:48;;;;;;;4.97;0.10;;;;;;;16.83;100.00;99371.69;5074887;28;20397;-51
2021/06/17 08:49:53;;;;;;;1.10;0.50;;;;;;;17.01;100.00;99370.94;5074890;28;20389;-51
2021/06/17 08:52:57;;;;;;;2.95;0.10;;;;;;;17.24;100.00;99372.91;5074705;28;20044;-51
2021/06/17 08:56:00;;;;;;;2.05;0.28;;;;;;;17.48;100.00;99369.22;5074454;28;20052;-51
2021/06/17 08:59:07;;;;;;;0.50;0.15;;;;;;;17.71;100.00;99367.63;5074720;28;20047;-51
2021/06/17 09:02:11;;;;;;;6.03;0.32;;;;;;;17.92;100.00;99377.00;5074857;28;20503;-51
2021/06/17 09:05:15;;;;;;;1.38;0.20;;;;;;;18.31;100.00;99372.75;5074544;28;20043;-51
2021/06/17 09:08:28;;;;;;;0.50;0.10;;;;;;;18.92;100.00;99378.75;5074521;28;20460;-51
2021/06/17 09:11:32;;;;;;;2.85;0.20;;;;;;;19.24;100.00;99387.03;5074375;28;20043;-52
2021/06/17 09:14:37;;;;;;;0.63;0.30;;;;;;;19.24;100.00;99391.91;5074174;28;20536;-51
2021/06/17 09:17:40;;;;;;;1.10;0.20;;;;;;;19.19;100.00;99385.09;5074190;28;20405;-51
2021/06/17 09:20:51;;;;;;;0.30;0.15;;;;;;;19.23;100.00;99381.94;5074105;28;20051;-51
2021/06/17 09:23:55;;;;;;;6.38;0.52;;;;;;;19.30;100.00;99367.91;5073330;28;20055;-51
2021/06/17 09:27:19;;;;;;;2.35;0.73;;;;;;;19.37;100.00;99384.22;5073998;28;20055;-52
2021/06/17 09:30:24;;;;;;;0.57;0.25;;;;;;;19.29;100.00;99389.00;5073128;28;20047;-51
2021/06/17 09:33:40;;;;;;;1.05;0.20;;;;;;;19.24;100.00;99387.03;5074020;28;20051;-52
2021/06/17 09:36:45;;;;;;;3.38;0.10;;;;;;;19.29;100.00;99389.00;5073936;28;20052;-52
2021/06/17 09:39:48;;;;;;;4.13;0.80;;;;;;;19.40;100.00;99385.19;5073796;28;20058;-50
2021/06/17 09:42:54;;;;;;;0.15;0.10;;;;;;;19.05;100.00;99397.72;5072782;28;20073;-52
2021/06/17 09:46:05;;;;;;;0.30;0.20;;;;;;;19.03;100.00;99397.50;5073669;28;20496;-50
2021/06/17 09:49:09;;;;;;;3.72;0.20;;;;;;;18.98;100.00;99398.38;5073764;28;20048;-50
2021/06/17 09:52:15;;;;;;;5.47;0.20;;;;;;;18.93;100.00;99396.41;5073872;28;20547;-50
2021/06/17 09:55:42;;;;;;;2.80;0.43;;;;;;;18.79;100.00;99397.75;5073378;28;20504;-53
2021/06/17 09:58:46;;;;;;;1.42;0.20;;;;;;;18.70;100.00;99401.75;5073556;28;20059;-52
2021/06/17 10:01:54;;;;;;;0.88;0.25;;;;;;;18.66;100.00;99395.69;5073434;28;20047;-53
2021/06/17 10:05:26;;;;;;;3.72;0.43;;;;;;;18.61;100.00;99387.31;5073277;28;20052;-53
2021/06/17 10:08:29;;;;;;;0.20;0.13;;;;;;;18.61;100.00;99390.13;5073553;28;20044;-52
2021/06/17 10:11:34;;;;;;;5.22;0.28;;;;;;;18.55;100.00;99392.31;5073193;28;20048;-52
2021/06/17 10:14:38;;;;;;;0.65;0.25;;;;;;;18.50;100.00;99387.53;5073025;28;20043;-52
2021/06/17 10:17:42;;;;;;;2.80;0.30;;;;;;;18.47;100.00;99395.03;5073014;28;20043;-53
2021/06/17 10:20:49;;;;;;;2.88;0.50;;;;;;;18.47;100.00;99394.28;5072996;28;20055;-53
2021/06/17 10:23:53;;;;;;;3.40;0.50;;;;;;;18.61;100.00;99390.13;5073018;28;20409;-53
2021/06/17 10:27:09;;;;;;;0.52;0.22;;;;;;;18.62;100.00;99391.66;5072928;28;20044;-53
2021/06/17 10:30:13;;;;;;;1.98;0.20;;;;;;;18.58;100.00;99386.34;5072951;28;20804;-54
2021/06/17 10:33:37;;;;;;;1.08;0.10;;;;;;;18.63;100.00;99371.38;5072892;28;20051;-53
2021/06/17 10:36:41;;;;;;;6.35;0.40;;;;;;;18.82;100.00;99371.25;5072743;28;20389;-53
2021/06/17 10:39:53;;;;;;;0.63;0.30;;;;;;;19.07;100.00;99377.41;5072841;28;20047;-54
2021/06/17 10:42:58;;;;;;;0.73;0.10;;;;;;;19.27;100.00;99371.06;5072610;28;20047;-54
2021/06/17 10:46:01;;;;;;;2.17;0.43;;;;;;;19.30;100.00;99370.72;5072748;28;20047;-54
2021/06/17 10:49:05;;;;;;;5.55;0.10;;;;;;;19.67;100.00;99373.22;5072590;28;20396;-53
2021/06/17 10:52:25;;;;;;;6.43;0.38;;;;;;;20.11;100.00;99379.09;5072581;28;20055;-55
2021/06/17 10:55:29;;;;;;;1.15;0.20;;;;;;;20.07;100.00;99381.50;5071844;28;20405;-54
2021/06/17 10:58:41;;;;;;;3.28;0.35;;;;;;;19.86;100.00;99389.97;5072437;28;20504;-55
2021/06/17 11:01:45;;;;;;;0.73;0.20;;;;;;;19.92;100.00;99382.13;5072325;28;20099;-54
2021/06/17 11:04:49;;;;;;;0.55;0.20;;;;;;;19.87;100.00;99396.38;5072334;28;20051;-55
2021/06/17 11:08:21;;;;;;;0.77;0.22;;;;;;;19.80;100.00;99397.06;5072130;28;20400;-55
2021/06/17 11:11:30;;;;;;;4.85;0.30;;;;;;;19.86;100.00;99400.53;5072252;28;20397;-55
2021/06/17 11:14:41;;;;;;;1.75;0.28;;;;;;;20.04;100.00;99399.56;5071971;28;20051;-55
2021/06/17 11:17:45;;;;;;;2.80;0.22;;;;;;;20.18;100.00;99404.59;5072121;28;20044;-55
2021/06/17 11:20:48;;;;;;;3.03;0.20;;;;;;;20.14;100.00;99423.97;5072290;28;20048;-55
2021/06/17 11:24:07;;;;;;;0.45;0.10;;;;;;;19.92;100.00;99426.59;5072008;28;20055;-56
2021/06/17 11:27:29;;;;;;;0.15;0.08;;;;;;;19.90;100.00;99423.56;5072020;28;20067;-56
2021/06/17 11:30:38;;;;;;;3.25;0.40;;;;;;;20.03;100.00;99415.75;5072107;28;20051;-56
2021/06/17 11:33:47;;;;;;;2.25;0.35;;;;;;;20.19;100.00;99427.97;5071850;28;20043;-56
2021/06/17 11:36:52;;;;;;;0.10;0.00;;;;;;;20.20;100.00;99435.16;5072018;28;20059;-56
2021/06/17 11:39:56;;;;;;;4.88;0.10;;;;;;;20.18;100.00;99426.47;5071851;28;20500;-56
2021/06/17 11:42:59;;;;;;;0.75;0.20;;;;;;;19.92;100.00;99426.59;5071809;28;20070;-56
2021/06/17 11:46:03;;;;;;;5.82;0.50;;;;;;;19.89;100.00;99433.34;5071730;28;20059;-57
2021/06/17 11:49:09;;;;;;;1.75;0.20;;;;;;;20.04;100.00;99441.97;5071826;28;20499;-56
2021/06/17 11:52:20;;;;;;;4.15;0.65;;;;;;;20.23;100.00;99439.72;5071806;28;20445;-58
2021/06/17 11:55:25;;;;;;;1.73;0.20;;;;;;;20.11;100.00;99433.56;5071632;28;20059;-56
2021/06/17 11:58:34;;;;;;;1.25;0.50;;;;;;;19.64;100.00;99436.47;5071736;28;20043;-57
2021/06/17 12:01:38;;;;;;;1.85;0.35;;;;;;;19.31;100.00;99436.44;5071723;28;20049;-57
2021/06/17 12:05:10;;;;;;;2.75;0.65;;;;;;;19.29;100.00;99448.28;5071879;28;20405;-56
2021/06/17 12:08:13;;;;;;;2.70;0.25;;;;;;;19.40;100.00;99452.97;5075577;28;20056;-57
2021/06/17 12:11:21;;;;;;;0.63;0.30;;;;;;;19.46;100.00;99457.19;5075294;28;20052;-55
2021/06/17 12:14:45;;;;;;;2.58;0.20;;;;;;;19.87;100.00;99464.22;5075334;28;20047;-56
2021/06/17 12:17:54;;;;;;;3.10;0.32;;;;;;;20.32;100.00;99464.69;5075839;28;20039;-56
2021/06/17 12:20:58;;;;;;;0.75;0.13;;;;;;;20.71;100.00;99461.59;5075390;28;20051;-56
2021/06/17 12:24:10;;;;;;;0.20;0.10;;;;;;;20.98;100.00;99465.00;5075362;28;20043;-56
2021/06/17 12:27:13;;;;;;;2.90;0.10;;;;;;;21.08;100.00;99463.97;5075380;28;20043;-56
2021/06/17 12:30:23;;;;;;;2.67;0.10;;;;;;;20.95;100.00;99458.38;5075225;28;20044;-56
2021/06/17 12:33:31;;;;;;;2.72;0.32;;;;;;;20.90;100.00;99458.50;5075100;28;20044;-56
2021/06/17 12:36:35;;;;;;;4.13;0.40;;;;;;;20.91;100.00;99457.97;5074862;28;20051;-56
2021/06/17 12:39:40;;;;;;;1.15;0.60;;;;;;;21.09;100.00;99451.31;5075159;28;20063;-56
2021/06/17 12:43:05;;;;;;;1.75;0.68;;;;;;;21.22;100.00;99449.69;5074769;28;20043;-56
2021/06/17 12:46:09;;;;;;;3.92;0.20;;;;;;;21.40;100.00;99446.53;5075247;28;20047;-56
2021/06/17 12:49:27;;;;;;;2.03;0.00;;;;;;;21.47;100.00;99445.81;5074837;28;20071;-54
2021/06/17 12:52:31;;;;;;;1.77;0.25;;;;;;;21.81;100.00;99448.38;5074680;28;20063;-56
2021/06/17 12:55:37;;;;;;;4.40;0.10;;;;;;;21.99;100.00;99438.81;5074265;28;20071;-55
2021/06/17 12:58:52;;;;;;;3.70;0.10;;;;;;;21.79;100.00;99442.50;5074645;28;20048;-55
2021/06/17 13:01:55;;;;;;;1.45;0.10;;;;;;;21.73;100.00;99456.88;5074190;28;20114;-56
2021/06/17 13:05:06;;;;;;;0.40;0.00;;;;;;;21.70;100.00;99468.59;5074592;28;20051;-56
2021/06/17 13:08:12;;;;;;;0.20;0.00;;;;;;;21.50;100.00;99466.63;5074617;28;20051;-47
2021/06/17 13:11:27;;;;;;;2.95;0.30;;;;;;;21.39;100.00;99472.59;5074398;28;20055;-48
2021/06/17 13:14:31;;;;;;;0.77;0.47;;;;;;;21.35;100.00;99486.38;5074172;28;20048;-47
2021/06/17 13:17:40;;;;;;;3.47;0.52;;;;;;;21.21;100.00;99484.97;5074201;28;20056;-47
2021/06/17 13:20:46;;;;;;;1.38;0.28;;;;;;;21.16;100.00;99480.25;5074066;28;20047;-47
2021/06/17 13:23:50;;;;;;;0.35;0.20;;;;;;;21.21;100.00;99485.75;5074560;28;20059;-47
2021/06/17 13:27:22;;;;;;;0.38;0.25;;;;;;;21.17;100.00;99484.56;5074281;28;20056;-48
2021/06/17 13:30:31;;;;;;;10.10;0.75;;;;;;;21.04;100.00;99491.13;5074076;28;20055;-47
2021/06/17 13:33:36;;;;;;;1.83;0.10;;;;;;;20.95;100.00;99488.75;5073921;28;20056;-47
2021/06/17 13:36:40;;;;;;;6.05;0.10;;;;;;;20.84;100.00;99489.81;5074119;28;20252;-47
2021/06/17 13:39:45;;;;;;;5.05;0.40;;;;;;;20.77;100.00;99503.94;5073934;28;20048;-47
2021/06/17 13:42:57;;;;;;;5.25;0.52;;;;;;;20.63;100.00;99500.41;5073963;28;20047;-47
2021/06/17 13:46:01;;;;;;;0.25;0.10;;;;;;;20.60;100.00;99507.16;5073733;28;20500;-47
2021/06/17 13:49:04;;;;;;;3.35;0.75;;;;;;;20.73;100.00;99512.75;5073621;28;20056;-47
2021/06/17 13:52:08;;;;;;;0.95;0.10;;;;;;;20.69;100.00;99515.19;5074078;28;20492;-47
2021/06/17 13:55:15;;;;;;;0.80;0.20;;;;;;;20.54;100.00;99525.59;5073366;28;20055;-47
2021/06/17 13:58:19;;;;;;;2.60;0.30;;;;;;;20.37;100.00;99523.19;5073413;28;20044;-47
2021/06/17 14:01:22;;;;;;;3.53;0.38;;;;;;;20.37;100.00;99520.38;5073501;28;20051;-47
2021/06/17 14:04:25;;;;;;;7.80;0.25;;;;;;;20.43;100.00;99515.31;5073598;28;20468;-47
2021/06/17 14:07:29;;;;;;;1.05;0.08;;;;;;;20.49;100.00;99523.69;5073316;28;20055;-47
2021/06/17 14:10:34;;;;;;;2.95;0.30;;;;;;;20.47;100.00;99515.75;5072380;28;20153;-47
2021/06/17 14:13:37;;;;;;;3.50;0.30;;;;;;;20.39;100.00;99514.91;5073358;28;20531;-47
2021/06/17 14:16:41;;;;;;;0.20;0.20;;;;;;;20.29;100.00;99517.44;5073203;28;20051;-47
2021/06/17 14:19:44;;;;;;;0.85;0.10;;;;;;;20.22;100.00;99517.41;5073004;28;20059;-47
2021/06/17 14:22:47;;;;;;;4.00;0.22;;;;;;;20.21;100.00;99525.09;5072989;28;20063;-47
2021/06/17 14:25:53;;;;;;;0.93;0.13;;;;;;;20.30;100.00;99532.34;5073023;28;20068;-47
2021/06/17 14:28:56;;;;;;;2.15;0.22;;;;;;;20.34;100.00;99535.59;5072451;28;20055;-47